createdAt,value
2023-05-08T00:02:16.964Z,2.62
2023-05-08T00:04:45.731Z,2.63
2023-05-08T00:07:14.413Z,2.64
2023-05-08T00:09:43.154Z,2.61
2023-05-08T00:12:11.830Z,2.60
2023-05-08T00:14:40.583Z,2.58
2023-05-08T00:17:09.289Z,2.53
2023-05-08T00:19:37.945Z,2.48
2023-05-08T00:22:06.642Z,2.43
2023-05-08T00:24:35.302Z,2.41
2023-05-08T00:27:03.941Z,2.38
2023-05-08T00:29:32.620Z,2.40
2023-05-08T00:32:01.403Z,2.36
2023-05-08T00:34:30.069Z,2.41
2023-05-08T00:36:58.761Z,2.45
2023-05-08T00:39:27.398Z,2.44
2023-05-08T00:41:56.054Z,2.41
2023-05-08T00:44:24.695Z,2.36
2023-05-08T00:46:53.371Z,2.30
2023-05-08T00:49:22.470Z,2.23
2023-05-08T00:51:54.682Z,2.20
2023-05-08T00:54:23.472Z,2.14
2023-05-08T00:56:53.343Z,2.20
2023-05-08T00:59:23.052Z,2.18
2023-05-08T01:01:52.600Z,2.20
2023-05-08T01:04:25.351Z,2.22
2023-05-08T01:06:54.019Z,2.16
2023-05-08T01:09:22.731Z,2.10
2023-05-08T01:12:16.281Z,2.04
2023-05-08T01:15:08.805Z,1.96
2023-05-08T01:17:56.311Z,1.96
2023-05-08T01:20:56.656Z,1.92
2023-05-08T01:23:53.170Z,1.97
2023-05-08T01:26:59.846Z,1.94
2023-05-08T01:29:37.857Z,1.88
2023-05-08T01:32:24.973Z,1.90
2023-05-08T01:35:12.598Z,1.86
2023-05-08T01:37:47.369Z,1.83
2023-05-08T01:40:33.996Z,1.76
2023-05-08T01:43:28.092Z,1.67
2023-05-08T01:45:59.483Z,1.67
2023-05-08T01:48:31.719Z,1.68
2023-05-08T01:51:19.161Z,1.66
2023-05-08T01:53:52.437Z,1.69
2023-05-08T01:56:24.052Z,1.72
2023-05-08T01:58:55.590Z,1.71
2023-05-08T02:01:26.361Z,1.68
2023-05-08T02:03:58.097Z,1.62
2023-05-08T02:06:29.034Z,1.51
2023-05-08T02:08:59.880Z,1.43
2023-05-08T02:11:31.874Z,1.42
2023-05-08T02:14:02.070Z,1.50
2023-05-08T02:16:31.822Z,1.53
2023-05-08T02:19:02.593Z,1.49
2023-05-08T02:21:33.059Z,1.46
2023-05-08T02:24:03.436Z,1.42
2023-05-08T02:26:34.583Z,1.39
2023-05-08T02:29:04.107Z,1.36
2023-05-08T02:31:33.434Z,1.35
2023-05-08T02:34:04.191Z,1.37
2023-05-08T02:36:34.613Z,1.45
2023-05-08T02:39:04.099Z,1.51
2023-05-08T02:41:34.016Z,1.53
2023-05-08T02:44:02.801Z,1.49
2023-05-08T02:46:38.357Z,1.49
2023-05-08T02:49:17.173Z,1.44
2023-05-08T02:51:55.819Z,1.30
2023-05-08T02:54:40.045Z,1.30
2023-05-08T02:57:27.482Z,1.24
2023-05-08T03:00:01.502Z,1.22
2023-05-08T03:02:36.441Z,1.27
2023-05-08T03:05:19.067Z,1.32
2023-05-08T03:07:51.929Z,1.26
2023-05-08T03:10:25.140Z,1.16
2023-05-08T03:12:57.477Z,1.14
2023-05-08T03:15:33.352Z,1.13
2023-05-08T03:18:13.827Z,1.08
2023-05-08T03:20:47.984Z,1.04
2023-05-08T03:23:20.105Z,1.06
2023-05-08T03:25:48.871Z,1.10
2023-05-08T03:28:18.642Z,1.08
2023-05-08T03:30:49.300Z,1.16
2023-05-08T03:33:19.481Z,1.21
2023-05-08T03:35:49.932Z,1.19
2023-05-08T03:38:18.712Z,1.15
2023-05-08T03:40:47.554Z,1.18
2023-05-08T03:43:17.593Z,1.24
2023-05-08T03:45:47.621Z,1.32
2023-05-08T03:48:16.876Z,1.44
2023-05-08T03:50:46.406Z,1.57
2023-05-08T03:53:15.342Z,1.62
2023-05-08T03:55:44.005Z,1.66
2023-05-08T03:58:31.481Z,1.67
2023-05-08T04:01:23.442Z,1.62
2023-05-08T04:04:01.357Z,1.56
2023-05-08T04:06:48.713Z,1.58
2023-05-08T04:09:28.188Z,1.64
2023-05-08T04:12:05.188Z,1.73
2023-05-08T04:14:41.953Z,1.84
2023-05-08T04:17:15.854Z,1.92
2023-05-08T04:19:47.111Z,1.96
2023-05-08T04:22:20.484Z,2.08
2023-05-08T04:24:51.421Z,2.12
2023-05-08T04:27:21.066Z,2.19
2023-05-08T04:29:50.033Z,2.26
2023-05-08T04:32:19.178Z,2.33
2023-05-08T04:34:48.412Z,2.47
2023-05-08T04:37:28.433Z,2.66
2023-05-08T04:39:57.838Z,2.85
2023-05-08T04:42:27.308Z,3.06
2023-05-08T04:44:56.714Z,3.24
2023-05-08T04:47:25.500Z,3.41
2023-05-08T04:49:54.228Z,3.54
2023-05-08T04:52:22.956Z,3.68
2023-05-08T04:54:51.643Z,3.84
2023-05-08T04:57:20.289Z,3.98
2023-05-08T04:59:49.001Z,4.09
2023-05-08T05:02:17.839Z,4.26
2023-05-08T05:04:46.833Z,4.39
2023-05-08T05:07:15.649Z,4.54
2023-05-08T05:09:44.437Z,4.66
2023-05-08T05:12:13.134Z,4.75
2023-05-08T05:14:41.833Z,4.89
2023-05-08T05:17:10.510Z,5.03
2023-05-08T05:19:39.185Z,5.16
2023-05-08T05:22:08.228Z,5.31
2023-05-08T05:24:36.996Z,5.52
2023-05-08T05:27:05.747Z,5.72
2023-05-08T05:29:34.471Z,5.93
2023-05-08T05:32:03.258Z,6.10
2023-05-08T05:34:31.933Z,6.37
2023-05-08T05:37:00.585Z,6.49
2023-05-08T05:39:29.254Z,6.56
2023-05-08T05:41:57.922Z,6.69
2023-05-08T05:44:26.572Z,6.86
2023-05-08T05:46:55.399Z,6.98
2023-05-08T05:49:24.103Z,7.12
2023-05-08T05:51:52.822Z,7.18
2023-05-08T05:54:21.575Z,7.31
2023-05-08T05:56:50.224Z,7.50
2023-05-08T05:59:18.916Z,7.69
2023-05-08T06:01:47.589Z,7.78
2023-05-08T06:04:16.300Z,7.95
2023-05-08T06:06:45.011Z,8.07
2023-05-08T06:09:13.749Z,8.13
2023-05-08T06:11:42.509Z,8.23
2023-05-08T06:14:11.308Z,8.35
2023-05-08T06:16:40.072Z,8.37
2023-05-08T06:19:09.008Z,8.43
2023-05-08T06:21:39.130Z,8.48
2023-05-08T06:24:08.035Z,8.64
2023-05-08T06:26:36.744Z,8.75
2023-05-08T06:29:05.424Z,8.71
2023-05-08T06:31:34.311Z,8.68
2023-05-08T06:34:03.256Z,8.78
2023-05-08T06:36:32.313Z,8.99
2023-05-08T06:39:01.085Z,9.20
2023-05-08T06:41:29.807Z,9.38
2023-05-08T06:43:58.499Z,9.51
2023-05-08T06:46:27.277Z,9.38
2023-05-08T06:48:55.947Z,9.34
2023-05-08T06:51:24.745Z,9.44
2023-05-08T06:53:53.398Z,9.68
2023-05-08T06:56:22.792Z,9.82
2023-05-08T06:59:04.560Z,9.90
2023-05-08T07:01:37.576Z,9.88
2023-05-08T07:04:06.627Z,9.89
2023-05-08T07:06:35.512Z,9.89
2023-05-08T07:09:04.295Z,9.87
2023-05-08T07:11:33.018Z,9.89
2023-05-08T07:14:01.852Z,9.92
2023-05-08T07:16:30.649Z,10.07
2023-05-08T07:18:59.400Z,10.32
2023-05-08T07:21:29.356Z,10.47
2023-05-08T07:23:58.024Z,10.62
2023-05-08T07:26:27.428Z,10.74
2023-05-08T07:28:56.071Z,10.79
2023-05-08T07:31:24.792Z,11.02
2023-05-08T07:33:53.486Z,11.09
2023-05-08T07:36:22.903Z,11.44
2023-05-08T07:38:51.560Z,11.47
2023-05-08T07:41:20.250Z,11.51
2023-05-08T07:43:48.980Z,11.57
2023-05-08T07:46:18.833Z,11.65
2023-05-08T07:48:47.619Z,11.73
2023-05-08T07:51:16.548Z,11.90
2023-05-08T07:53:45.273Z,12.34
2023-05-08T07:56:14.172Z,12.50
2023-05-08T07:58:43.052Z,12.69
2023-05-08T08:01:11.930Z,12.54
2023-05-08T08:03:41.082Z,12.84
2023-05-08T08:06:09.802Z,13.16
2023-05-08T08:08:39.316Z,13.68
2023-05-08T08:11:08.053Z,13.93
2023-05-08T08:13:36.741Z,13.94
2023-05-08T08:16:06.338Z,13.78
2023-05-08T08:18:38.615Z,13.54
2023-05-08T08:21:07.830Z,13.49
2023-05-08T08:23:36.755Z,13.82
2023-05-08T08:26:05.556Z,13.74
2023-05-08T08:28:34.301Z,13.86
2023-05-08T08:31:03.032Z,14.06
2023-05-08T08:33:31.741Z,14.00
2023-05-08T08:36:00.475Z,13.52
2023-05-08T08:38:29.182Z,13.55
2023-05-08T08:40:57.897Z,13.82
2023-05-08T08:43:26.828Z,13.72
2023-05-08T08:45:56.782Z,13.91
2023-05-08T08:48:28.468Z,14.24
2023-05-08T08:51:03.123Z,14.30
2023-05-08T08:53:38.253Z,13.94
2023-05-08T08:56:08.798Z,13.63
2023-05-08T08:58:51.134Z,13.79
2023-05-08T09:01:21.748Z,14.01
2023-05-08T09:03:51.352Z,14.01
2023-05-08T09:06:20.411Z,14.51
2023-05-08T09:08:49.379Z,14.49
2023-05-08T09:11:18.027Z,14.29
2023-05-08T09:13:46.718Z,14.24
2023-05-08T09:16:15.477Z,14.44
2023-05-08T09:18:44.290Z,14.69
2023-05-08T09:21:13.181Z,14.93
2023-05-08T09:24:03.095Z,15.14
2023-05-08T09:26:40.069Z,15.49
2023-05-08T09:29:16.145Z,15.44
2023-05-08T09:31:50.195Z,15.10
2023-05-08T09:34:28.455Z,15.27
2023-05-08T09:37:09.589Z,15.42
2023-05-08T09:39:43.224Z,15.57
2023-05-08T09:42:12.110Z,15.20
2023-05-08T09:44:46.126Z,15.39
2023-05-08T09:47:23.120Z,15.10
2023-05-08T09:50:00.259Z,15.14
2023-05-08T09:52:30.683Z,15.08
2023-05-08T09:55:05.618Z,14.76
2023-05-08T09:57:38.534Z,14.79
2023-05-08T10:00:13.259Z,14.85
2023-05-08T10:02:55.156Z,14.95
2023-05-08T10:05:27.592Z,14.86
2023-05-08T10:07:58.042Z,14.59
2023-05-08T10:10:28.609Z,14.72
2023-05-08T10:12:58.623Z,15.06
2023-05-08T10:15:34.011Z,15.26
2023-05-08T10:18:08.744Z,15.65
2023-05-08T10:20:47.267Z,15.58
2023-05-08T10:23:19.161Z,15.50
2023-05-08T10:25:55.844Z,15.81
2023-05-08T10:28:57.992Z,15.87
2023-05-08T10:31:34.079Z,16.40
2023-05-08T10:34:03.996Z,16.27
2023-05-08T10:36:33.290Z,16.16
2023-05-08T10:39:02.329Z,16.06
2023-05-08T10:41:31.124Z,16.11
2023-05-08T10:44:03.188Z,16.35
2023-05-08T10:46:53.777Z,16.61
2023-05-08T10:49:31.424Z,17.00
2023-05-08T10:52:24.771Z,17.20
2023-05-08T10:55:04.553Z,16.90
2023-05-08T10:57:33.336Z,17.44
2023-05-08T11:00:01.976Z,17.69
2023-05-08T11:02:32.829Z,17.56
2023-05-08T11:05:15.749Z,17.48
2023-05-08T11:07:58.260Z,17.41
2023-05-08T11:10:32.214Z,17.38
2023-05-08T11:13:01.568Z,17.48
2023-05-08T11:15:37.677Z,17.77
2023-05-08T11:18:11.512Z,18.22
2023-05-08T11:20:58.153Z,18.34
2023-05-08T11:23:28.495Z,18.23
2023-05-08T11:26:06.687Z,18.05
2023-05-08T11:28:58.897Z,17.83
2023-05-08T11:31:50.364Z,17.84
2023-05-08T11:34:44.416Z,18.42
2023-05-08T11:37:24.390Z,18.31
2023-05-08T11:39:53.284Z,18.16
2023-05-08T11:42:24.723Z,17.50
2023-05-08T11:45:09.937Z,17.35
2023-05-08T11:47:42.565Z,17.57
2023-05-08T11:50:14.545Z,17.79
2023-05-08T11:52:44.126Z,18.10
2023-05-08T11:55:15.869Z,18.14
2023-05-08T11:57:46.261Z,17.73
2023-05-08T12:00:15.892Z,17.49
2023-05-08T12:02:50.586Z,17.57
2023-05-08T12:05:28.111Z,17.65
2023-05-08T12:07:57.224Z,17.28
2023-05-08T12:10:26.117Z,16.96
2023-05-08T12:12:54.979Z,16.98
2023-05-08T12:15:23.907Z,17.26
2023-05-08T12:18:02.886Z,17.32
2023-05-08T12:20:33.732Z,17.74
2023-05-08T12:23:03.743Z,17.94
2023-05-08T12:25:32.523Z,17.63
2023-05-08T12:28:01.312Z,17.67
2023-05-08T12:30:30.251Z,17.63
2023-05-08T12:33:00.706Z,17.26
2023-05-08T12:35:29.614Z,17.29
2023-05-08T12:38:03.450Z,17.17
2023-05-08T12:40:34.760Z,17.62
2023-05-08T12:43:04.195Z,18.00
2023-05-08T12:45:39.513Z,17.99
2023-05-08T12:48:11.272Z,17.90
2023-05-08T12:50:41.965Z,17.54
2023-05-08T12:53:21.764Z,17.27
2023-05-08T12:55:53.716Z,17.03
2023-05-08T12:58:28.201Z,17.14
2023-05-08T13:01:10.268Z,17.81
2023-05-08T13:03:40.718Z,17.97
2023-05-08T13:06:21.253Z,17.81
2023-05-08T13:08:56.586Z,18.12
2023-05-08T13:11:31.286Z,18.21
2023-05-08T13:14:00.240Z,18.50
2023-05-08T13:16:29.162Z,18.50
2023-05-08T13:18:58.008Z,17.90
2023-05-08T13:21:27.943Z,17.68
2023-05-08T13:23:57.128Z,17.55
2023-05-08T13:26:26.325Z,17.84
2023-05-08T13:28:56.670Z,17.86
2023-05-08T13:31:26.091Z,17.59
2023-05-08T13:33:54.875Z,17.67
2023-05-08T13:36:24.429Z,17.68
2023-05-08T13:38:54.891Z,17.75
2023-05-08T13:41:23.667Z,17.48
2023-05-08T13:43:52.793Z,17.43
2023-05-08T13:46:21.655Z,17.58
2023-05-08T13:48:50.517Z,17.73
2023-05-08T13:51:19.287Z,17.86
2023-05-08T13:53:48.249Z,18.08
2023-05-08T13:56:18.590Z,18.12
2023-05-08T13:58:48.929Z,17.91
2023-05-08T14:01:26.436Z,18.13
2023-05-08T14:03:58.155Z,18.33
2023-05-08T14:06:27.924Z,17.82
2023-05-08T14:08:57.542Z,17.39
2023-05-08T14:11:27.271Z,17.43
2023-05-08T14:13:56.210Z,17.50
2023-05-08T14:16:29.638Z,17.53
2023-05-08T14:18:59.590Z,17.77
2023-05-08T14:21:28.774Z,17.83
2023-05-08T14:23:57.622Z,17.75
2023-05-08T14:26:26.778Z,17.65
2023-05-08T14:28:55.570Z,17.45
2023-05-08T14:31:24.577Z,17.48
2023-05-08T14:33:54.527Z,17.58
2023-05-08T14:36:23.443Z,17.46
2023-05-08T14:38:52.279Z,17.13
2023-05-08T14:41:22.011Z,16.95
2023-05-08T14:43:50.717Z,16.95
2023-05-08T14:46:19.446Z,16.95
2023-05-08T14:48:48.177Z,16.91
2023-05-08T14:51:19.313Z,16.91
2023-05-08T14:53:48.183Z,17.15
2023-05-08T14:56:18.049Z,17.40
2023-05-08T14:58:46.846Z,17.23
2023-05-08T15:01:15.680Z,16.96
2023-05-08T15:03:47.333Z,16.81
2023-05-08T15:06:16.143Z,16.78
2023-05-08T15:08:44.812Z,17.03
2023-05-08T15:11:13.522Z,17.13
2023-05-08T15:13:42.280Z,17.02
2023-05-08T15:16:10.969Z,16.78
2023-05-08T15:18:40.355Z,16.79
2023-05-08T15:21:09.076Z,16.79
2023-05-08T15:23:38.466Z,16.85
2023-05-08T15:26:08.446Z,16.99
2023-05-08T15:28:38.200Z,17.07
2023-05-08T15:31:06.886Z,17.04
2023-05-08T15:33:35.586Z,17.03
2023-05-08T15:36:04.650Z,16.93
2023-05-08T15:38:33.286Z,16.73
2023-05-08T15:41:01.959Z,16.64
2023-05-08T15:43:30.977Z,16.65
2023-05-08T15:46:00.889Z,16.59
2023-05-08T15:48:32.823Z,16.50
2023-05-08T15:51:03.745Z,16.39
2023-05-08T15:53:36.765Z,16.23
2023-05-08T15:56:07.471Z,16.09
2023-05-08T15:58:39.048Z,15.95
2023-05-08T16:01:10.053Z,15.84
2023-05-08T16:03:42.763Z,15.66
2023-05-08T16:06:17.039Z,15.61
2023-05-08T16:08:45.924Z,15.60
2023-05-08T16:11:16.018Z,15.53
2023-05-08T16:13:50.314Z,15.41
2023-05-08T16:16:19.875Z,15.35
2023-05-08T16:18:49.048Z,15.31
2023-05-08T16:21:28.842Z,15.27
2023-05-08T16:23:59.632Z,15.23
2023-05-08T16:26:31.931Z,15.18
2023-05-08T16:29:01.917Z,15.19
2023-05-08T16:31:30.888Z,15.21
2023-05-08T16:34:00.744Z,15.19
2023-05-08T16:36:29.772Z,15.17
2023-05-08T16:39:12.523Z,15.10
2023-05-08T16:41:42.290Z,15.06
2023-05-08T16:44:11.152Z,15.01
2023-05-08T16:46:40.005Z,14.94
2023-05-08T16:49:08.867Z,14.90
2023-05-08T16:51:37.709Z,14.86
2023-05-08T16:54:06.480Z,14.85
2023-05-08T16:56:36.333Z,14.82
2023-05-08T16:59:06.669Z,14.80
2023-05-08T17:01:35.626Z,14.77
2023-05-08T17:04:04.509Z,14.70
2023-05-08T17:06:33.934Z,14.68
2023-05-08T17:09:02.983Z,14.67
2023-05-08T17:11:31.729Z,14.64
2023-05-08T17:14:00.546Z,14.58
2023-05-08T17:16:29.348Z,14.50
2023-05-08T17:18:59.660Z,14.43
2023-05-08T17:21:30.274Z,14.37
2023-05-08T17:24:00.531Z,14.34
2023-05-08T17:26:33.094Z,14.29
2023-05-08T17:29:01.926Z,14.21
2023-05-08T17:31:30.842Z,14.14
2023-05-08T17:33:59.614Z,14.05
2023-05-08T17:36:28.383Z,14.01
2023-05-08T17:38:57.048Z,13.94
2023-05-08T17:41:25.704Z,13.87
2023-05-08T17:43:55.016Z,13.82
2023-05-08T17:46:23.778Z,13.76
2023-05-08T17:48:52.555Z,13.69
2023-05-08T17:51:21.273Z,13.62
2023-05-08T17:53:50.031Z,13.55
2023-05-08T17:56:20.621Z,13.50
2023-05-08T17:58:50.358Z,13.43
2023-05-08T18:01:20.083Z,13.33
2023-05-08T18:03:48.892Z,13.21
2023-05-08T18:06:18.562Z,13.10
2023-05-08T18:08:47.969Z,13.04
2023-05-08T18:11:19.769Z,12.92
2023-05-08T18:13:48.757Z,12.84
2023-05-08T18:16:19.260Z,12.77
2023-05-08T18:18:49.581Z,12.69
2023-05-08T18:21:18.396Z,12.57
2023-05-08T18:23:47.124Z,12.48
2023-05-08T18:26:17.133Z,12.39
2023-05-08T18:28:46.038Z,12.30
2023-05-08T18:31:16.380Z,12.17
2023-05-08T18:33:45.131Z,12.00
2023-05-08T18:36:13.871Z,11.85
2023-05-08T18:38:42.682Z,11.73
2023-05-08T18:41:11.450Z,11.60
2023-05-08T18:43:41.523Z,11.49
2023-05-08T18:46:14.721Z,11.39
2023-05-08T18:48:44.442Z,11.23
2023-05-08T18:51:13.152Z,11.11
2023-05-08T18:53:41.841Z,10.99
2023-05-08T18:56:12.471Z,10.86
2023-05-08T18:58:41.205Z,10.74
2023-05-08T19:01:10.202Z,10.67
2023-05-08T19:03:39.020Z,10.57
2023-05-08T19:06:07.767Z,10.44
2023-05-08T19:08:36.444Z,10.27
2023-05-08T19:11:05.106Z,10.12
2023-05-08T19:13:33.954Z,10.00
2023-05-08T19:16:02.775Z,9.89
2023-05-08T19:18:31.826Z,9.76
2023-05-08T19:21:01.598Z,9.63
2023-05-08T19:23:30.296Z,9.54
2023-05-08T19:25:59.017Z,9.43
2023-05-08T19:28:27.732Z,9.32
2023-05-08T19:30:56.509Z,9.22
2023-05-08T19:33:25.207Z,9.09
2023-05-08T19:35:53.857Z,8.99
2023-05-08T19:38:22.478Z,8.92
2023-05-08T19:40:56.315Z,8.85
2023-05-08T19:43:26.695Z,8.79
2023-05-08T19:45:56.024Z,8.64
2023-05-08T19:48:24.840Z,8.44
2023-05-08T19:50:56.155Z,8.35
2023-05-08T19:53:25.062Z,8.27
2023-05-08T19:55:53.811Z,8.23
2023-05-08T19:58:22.533Z,8.15
2023-05-08T20:00:51.658Z,8.08
2023-05-08T20:03:20.784Z,8.02
2023-05-08T20:05:51.701Z,7.88
2023-05-08T20:08:20.428Z,7.72
2023-05-08T20:10:49.242Z,7.60
2023-05-08T20:13:17.997Z,7.47
2023-05-08T20:15:46.830Z,7.45
2023-05-08T20:18:15.699Z,7.44
2023-05-08T20:20:46.054Z,7.43
2023-05-08T20:23:14.782Z,7.45
2023-05-08T20:25:46.358Z,7.50
2023-05-08T20:28:15.641Z,7.54
2023-05-08T20:30:44.390Z,7.56
2023-05-08T20:33:13.110Z,7.58
2023-05-08T20:35:41.865Z,7.55
2023-05-08T20:38:11.080Z,7.48
2023-05-08T20:40:40.364Z,7.40
2023-05-08T20:43:09.556Z,7.30
2023-05-08T20:45:38.851Z,7.23
2023-05-08T20:48:07.570Z,7.13
2023-05-08T20:50:36.256Z,7.04
2023-05-08T20:53:04.899Z,6.94
2023-05-08T20:55:33.574Z,6.84
2023-05-08T20:58:04.174Z,6.78
2023-05-08T21:00:34.485Z,6.70
2023-05-08T21:03:03.414Z,6.63
2023-05-08T21:05:32.104Z,6.52
2023-05-08T21:08:02.410Z,6.42
2023-05-08T21:10:31.433Z,6.31
2023-05-08T21:13:00.279Z,6.29
2023-05-08T21:15:29.058Z,6.36
2023-05-08T21:17:58.049Z,6.42
2023-05-08T21:20:26.868Z,6.44
2023-05-08T21:22:55.549Z,6.46
2023-05-08T21:25:24.274Z,6.45
2023-05-08T21:27:55.153Z,6.43
2023-05-08T21:30:24.174Z,6.37
2023-05-08T21:32:52.892Z,6.31
2023-05-08T21:35:22.183Z,6.22
2023-05-08T21:37:53.839Z,6.11
2023-05-08T21:40:23.461Z,6.02
2023-05-08T21:42:52.079Z,5.93
2023-05-08T21:45:20.853Z,5.78
2023-05-08T21:47:49.603Z,5.60
2023-05-08T21:50:18.533Z,5.53
2023-05-08T21:52:47.254Z,5.54
2023-05-08T21:55:16.109Z,5.58
2023-05-08T21:57:44.951Z,5.64
2023-05-08T22:00:14.569Z,5.72
2023-05-08T22:02:43.329Z,5.76
2023-05-08T22:05:12.332Z,5.76
2023-05-08T22:07:41.579Z,5.75
2023-05-08T22:10:11.582Z,5.71
2023-05-08T22:12:40.333Z,5.65
2023-05-08T22:15:21.740Z,5.57
2023-05-08T22:17:58.328Z,5.46
2023-05-08T22:20:27.118Z,5.35
2023-05-08T22:22:56.160Z,5.18
2023-05-08T22:25:25.690Z,5.06
2023-05-08T22:27:54.363Z,5.02
2023-05-08T22:30:23.197Z,5.06
2023-05-08T22:32:57.369Z,5.12
2023-05-08T22:35:27.763Z,5.03
2023-05-08T22:37:59.538Z,5.04
2023-05-08T22:40:28.750Z,4.97
2023-05-08T22:42:58.929Z,4.92
2023-05-08T22:45:28.093Z,4.85
2023-05-08T22:47:57.032Z,4.79
2023-05-08T22:50:25.994Z,4.76
2023-05-08T22:52:54.691Z,4.73
2023-05-08T22:55:23.501Z,4.66
2023-05-08T22:57:52.164Z,4.58
2023-05-08T23:00:21.088Z,4.49
2023-05-08T23:02:49.790Z,4.48
2023-05-08T23:05:18.675Z,4.46
2023-05-08T23:07:47.317Z,4.45
2023-05-08T23:10:16.145Z,4.51
2023-05-08T23:12:45.010Z,4.51
2023-05-08T23:15:14.325Z,4.52
2023-05-08T23:17:43.167Z,4.49
2023-05-08T23:20:12.163Z,4.48
2023-05-08T23:22:40.812Z,4.43
2023-05-08T23:25:11.883Z,4.32
2023-05-08T23:27:40.986Z,4.26
2023-05-08T23:30:13.142Z,4.25
2023-05-08T23:32:45.117Z,4.25
2023-05-08T23:35:14.043Z,4.30
2023-05-08T23:37:42.916Z,4.34
2023-05-08T23:40:12.120Z,4.29
2023-05-08T23:42:40.842Z,4.21
2023-05-08T23:45:12.100Z,4.10
2023-05-08T23:47:41.481Z,3.95
2023-05-08T23:50:11.356Z,3.86
2023-05-08T23:52:41.512Z,3.89
2023-05-08T23:55:10.538Z,3.91
2023-05-08T23:57:39.208Z,3.93
